createdAt,value
2023-05-19T00:01:13.817Z,22.04
2023-05-19T00:03:49.338Z,22.42
2023-05-19T00:06:16.404Z,22.73
2023-05-19T00:08:43.732Z,22.51
2023-05-19T00:11:10.946Z,22.29
2023-05-19T00:13:38.211Z,22.09
2023-05-19T00:16:06.282Z,22.04
2023-05-19T00:18:33.586Z,21.96
2023-05-19T00:21:01.424Z,21.92
2023-05-19T00:23:28.476Z,21.84
2023-05-19T00:25:55.549Z,21.79
2023-05-19T00:28:22.569Z,21.79
2023-05-19T00:30:50.815Z,21.78
2023-05-19T00:33:17.892Z,21.83
2023-05-19T00:35:44.990Z,21.87
2023-05-19T00:38:11.969Z,21.78
2023-05-19T00:40:39.049Z,21.86
2023-05-19T00:43:06.133Z,21.88
2023-05-19T00:45:33.289Z,21.75
2023-05-19T00:48:00.459Z,21.82
2023-05-19T00:50:28.500Z,21.74
2023-05-19T00:52:56.079Z,21.76
2023-05-19T00:55:23.603Z,21.84
2023-05-19T00:57:51.073Z,21.76
2023-05-19T01:00:18.456Z,21.57
2023-05-19T01:02:45.528Z,21.42
2023-05-19T01:05:13.049Z,21.48
2023-05-19T01:07:41.736Z,21.39
2023-05-19T01:10:09.103Z,21.49
2023-05-19T01:12:36.286Z,21.56
2023-05-19T01:15:04.032Z,21.58
2023-05-19T01:17:50.073Z,21.58
2023-05-19T01:20:19.916Z,21.55
2023-05-19T01:22:50.071Z,21.50
2023-05-19T01:25:18.069Z,21.45
2023-05-19T01:27:51.475Z,21.39
2023-05-19T01:30:18.859Z,21.29
2023-05-19T01:32:46.083Z,21.20
2023-05-19T01:35:13.333Z,21.12
2023-05-19T01:37:40.600Z,21.02
2023-05-19T01:40:10.625Z,20.90
2023-05-19T01:42:40.120Z,20.86
2023-05-19T01:45:10.550Z,20.79
2023-05-19T01:47:42.153Z,20.73
2023-05-19T01:50:09.730Z,20.67
2023-05-19T01:52:36.932Z,20.59
2023-05-19T01:55:04.387Z,20.52
2023-05-19T01:57:32.548Z,20.46
2023-05-19T02:00:08.060Z,20.43
2023-05-19T02:02:59.259Z,20.41
2023-05-19T02:05:29.668Z,20.37
2023-05-19T02:08:10.879Z,20.32
2023-05-19T02:10:38.004Z,20.27
2023-05-19T02:13:05.906Z,20.23
2023-05-19T02:15:38.929Z,20.18
2023-05-19T02:18:06.031Z,20.15
2023-05-19T02:20:33.399Z,20.18
2023-05-19T02:23:00.917Z,20.19
2023-05-19T02:25:27.933Z,20.23
2023-05-19T02:27:54.922Z,20.30
2023-05-19T02:30:21.946Z,20.43
2023-05-19T02:32:49.162Z,20.65
2023-05-19T02:35:16.349Z,20.92
2023-05-19T02:37:43.716Z,21.20
2023-05-19T02:40:11.199Z,21.47
2023-05-19T02:42:38.402Z,21.73
2023-05-19T02:45:05.875Z,21.95
2023-05-19T02:47:34.741Z,22.23
2023-05-19T02:50:04.254Z,22.51
2023-05-19T02:52:31.868Z,22.88
2023-05-19T02:54:58.997Z,23.20
2023-05-19T02:57:27.135Z,23.54
2023-05-19T02:59:54.094Z,23.87
2023-05-19T03:02:21.160Z,24.21
2023-05-19T03:04:48.319Z,24.50
2023-05-19T03:07:16.627Z,24.74
2023-05-19T03:09:43.686Z,25.04
2023-05-19T03:12:10.895Z,25.37
2023-05-19T03:14:38.837Z,25.74
2023-05-19T03:17:08.306Z,26.13
2023-05-19T03:19:35.635Z,26.46
2023-05-19T03:22:02.822Z,26.74
2023-05-19T03:24:30.099Z,27.04
2023-05-19T03:26:57.244Z,27.35
2023-05-19T03:29:24.247Z,27.65
2023-05-19T03:31:52.339Z,27.83
2023-05-19T03:34:19.502Z,28.05
2023-05-19T03:36:46.606Z,28.12
2023-05-19T03:39:15.492Z,28.34
2023-05-19T03:41:43.009Z,28.61
2023-05-19T03:44:10.051Z,28.75
2023-05-19T03:46:37.372Z,29.13
2023-05-19T03:49:20.652Z,29.60
2023-05-19T03:52:06.524Z,30.06
2023-05-19T03:54:39.822Z,30.26
2023-05-19T03:57:06.841Z,30.50
2023-05-19T03:59:34.028Z,30.68
2023-05-19T04:02:01.002Z,30.84
2023-05-19T04:04:28.737Z,30.85
2023-05-19T04:06:55.848Z,31.01
2023-05-19T04:09:24.315Z,31.04
2023-05-19T04:11:51.359Z,31.09
2023-05-19T04:14:19.754Z,31.24
2023-05-19T04:16:46.907Z,31.60
2023-05-19T04:19:14.009Z,31.96
2023-05-19T04:21:41.259Z,32.13
2023-05-19T04:24:08.435Z,32.18
2023-05-19T04:26:36.212Z,32.47
2023-05-19T04:29:04.776Z,32.92
2023-05-19T04:31:34.570Z,33.21
2023-05-19T04:34:02.329Z,33.57
2023-05-19T04:36:29.487Z,33.98
2023-05-19T04:39:02.576Z,34.36
2023-05-19T04:41:29.995Z,34.46
2023-05-19T04:43:57.725Z,34.57
2023-05-19T04:46:26.260Z,34.73
2023-05-19T04:48:57.299Z,34.53
2023-05-19T04:51:30.288Z,34.41
2023-05-19T04:53:58.576Z,34.18
2023-05-19T04:56:27.568Z,34.49
2023-05-19T04:58:55.532Z,35.00
2023-05-19T05:01:26.366Z,35.48
2023-05-19T05:03:55.558Z,35.75
2023-05-19T05:06:23.224Z,35.86
2023-05-19T05:08:51.169Z,36.18
2023-05-19T05:11:18.775Z,36.40
2023-05-19T05:13:46.925Z,36.82
2023-05-19T05:16:14.748Z,36.93
2023-05-19T05:18:44.366Z,36.72
2023-05-19T05:21:12.432Z,36.75
2023-05-19T05:23:40.826Z,36.29
2023-05-19T05:26:13.878Z,36.63
2023-05-19T05:28:41.778Z,37.20
2023-05-19T05:31:09.005Z,37.44
2023-05-19T05:33:37.316Z,37.82
2023-05-19T05:36:04.868Z,38.25
2023-05-19T05:38:31.971Z,38.48
2023-05-19T05:40:59.407Z,38.39
2023-05-19T05:43:26.477Z,38.18
2023-05-19T05:45:58.921Z,38.09
2023-05-19T05:48:26.627Z,38.11
2023-05-19T05:50:54.787Z,38.18
2023-05-19T05:53:25.086Z,38.36
2023-05-19T05:55:53.822Z,38.36
2023-05-19T05:58:22.488Z,38.54
2023-05-19T06:00:51.664Z,38.59
2023-05-19T06:03:22.221Z,37.94
2023-05-19T06:05:49.847Z,37.84
2023-05-19T06:08:18.087Z,37.84
2023-05-19T06:10:47.213Z,37.99
2023-05-19T06:13:18.127Z,37.98
2023-05-19T06:15:46.666Z,38.23
2023-05-19T06:18:34.377Z,38.51
2023-05-19T06:21:01.927Z,38.56
2023-05-19T06:23:30.811Z,39.08
2023-05-19T06:25:57.945Z,39.51
2023-05-19T06:28:25.111Z,39.76
2023-05-19T06:30:52.345Z,39.77
2023-05-19T06:33:40.288Z,39.51
2023-05-19T06:36:10.310Z,39.22
2023-05-19T06:38:38.180Z,39.35
2023-05-19T06:41:05.842Z,39.33
2023-05-19T06:43:33.309Z,39.08
2023-05-19T06:46:03.659Z,39.06
2023-05-19T06:48:32.562Z,38.94
2023-05-19T06:51:00.559Z,38.83
2023-05-19T06:53:28.259Z,39.41
2023-05-19T06:56:00.012Z,39.83
2023-05-19T06:58:31.483Z,39.87
2023-05-19T07:00:59.117Z,40.06
2023-05-19T07:03:28.802Z,40.29
2023-05-19T07:05:56.488Z,40.30
2023-05-19T07:08:23.830Z,39.77
2023-05-19T07:10:51.184Z,40.04
2023-05-19T07:13:18.685Z,40.35
2023-05-19T07:15:46.546Z,40.20
2023-05-19T07:18:20.109Z,40.00
2023-05-19T07:20:47.526Z,39.68
2023-05-19T07:23:17.158Z,39.87
2023-05-19T07:25:46.501Z,39.67
2023-05-19T07:28:13.700Z,39.31
2023-05-19T07:30:41.130Z,39.03
2023-05-19T07:33:08.814Z,38.63
2023-05-19T07:35:38.597Z,38.49
2023-05-19T07:38:07.628Z,38.42
2023-05-19T07:40:35.051Z,38.41
2023-05-19T07:43:02.896Z,38.32
2023-05-19T07:45:30.055Z,37.49
2023-05-19T07:47:57.314Z,37.40
2023-05-19T07:50:24.614Z,37.11
2023-05-19T07:52:51.890Z,37.21
2023-05-19T07:55:19.525Z,37.01
2023-05-19T07:57:46.797Z,37.29
2023-05-19T08:00:14.369Z,37.29
2023-05-19T08:02:42.218Z,37.20
2023-05-19T08:05:09.981Z,37.28
2023-05-19T08:07:37.340Z,37.06
2023-05-19T08:10:05.928Z,37.51
2023-05-19T08:12:33.469Z,37.83
2023-05-19T08:15:05.411Z,38.07
2023-05-19T08:17:33.043Z,38.14
2023-05-19T08:20:03.672Z,37.96
2023-05-19T08:22:33.074Z,37.35
2023-05-19T08:25:05.066Z,37.48
2023-05-19T08:27:32.782Z,37.86
2023-05-19T08:30:00.273Z,37.55
2023-05-19T08:32:27.811Z,37.66
2023-05-19T08:34:57.129Z,37.88
2023-05-19T08:37:24.794Z,37.60
2023-05-19T08:39:52.161Z,37.24
2023-05-19T08:42:19.490Z,37.50
2023-05-19T08:44:46.894Z,37.78
2023-05-19T08:47:15.481Z,37.81
2023-05-19T08:49:46.271Z,37.70
2023-05-19T08:52:25.545Z,37.54
2023-05-19T08:55:01.293Z,37.66
2023-05-19T08:57:29.381Z,37.58
2023-05-19T08:59:56.984Z,37.50
2023-05-19T09:02:24.628Z,36.67
2023-05-19T09:04:52.239Z,36.01
2023-05-19T09:07:19.816Z,36.12
2023-05-19T09:09:47.142Z,35.83
2023-05-19T09:12:14.618Z,35.32
2023-05-19T09:14:43.033Z,35.22
2023-05-19T09:17:10.267Z,35.05
2023-05-19T09:19:38.765Z,35.58
2023-05-19T09:22:06.662Z,35.79
2023-05-19T09:24:34.341Z,35.80
2023-05-19T09:27:02.407Z,35.62
2023-05-19T09:29:29.600Z,35.20
2023-05-19T09:32:01.123Z,34.87
2023-05-19T09:34:28.512Z,35.21
2023-05-19T09:36:55.632Z,35.32
2023-05-19T09:39:23.111Z,35.37
2023-05-19T09:41:58.604Z,35.62
2023-05-19T09:44:30.577Z,35.81
2023-05-19T09:47:00.449Z,35.71
2023-05-19T09:49:31.533Z,35.63
2023-05-19T09:51:59.565Z,35.59
2023-05-19T09:54:28.626Z,35.33
2023-05-19T09:56:59.654Z,34.96
2023-05-19T09:59:29.771Z,34.48
2023-05-19T10:02:01.785Z,34.43
2023-05-19T10:04:30.834Z,33.79
2023-05-19T10:07:00.827Z,34.12
2023-05-19T10:09:28.569Z,34.49
2023-05-19T10:11:56.122Z,34.45
2023-05-19T10:14:29.804Z,34.43
2023-05-19T10:17:00.241Z,33.99
2023-05-19T10:19:28.306Z,33.76
2023-05-19T10:21:56.179Z,33.63
2023-05-19T10:24:23.323Z,33.63
2023-05-19T10:27:04.144Z,33.00
2023-05-19T10:29:32.153Z,32.70
2023-05-19T10:32:00.007Z,32.49
2023-05-19T10:34:50.529Z,32.44
2023-05-19T10:37:20.854Z,32.19
2023-05-19T10:39:48.515Z,31.92
2023-05-19T10:42:15.811Z,31.65
2023-05-19T10:44:46.197Z,31.41
2023-05-19T10:47:13.465Z,31.26
2023-05-19T10:49:40.842Z,31.14
2023-05-19T10:52:23.471Z,30.99
2023-05-19T10:54:51.645Z,30.99
2023-05-19T10:57:18.798Z,30.98
2023-05-19T10:59:46.161Z,30.96
2023-05-19T11:02:32.961Z,31.06
2023-05-19T11:05:19.708Z,31.24
2023-05-19T11:08:02.566Z,31.36
2023-05-19T11:10:30.007Z,31.62
2023-05-19T11:15:28.445Z,31.67
2023-05-19T11:17:55.698Z,31.74
2023-05-19T11:20:22.951Z,31.91
2023-05-19T11:23:07.174Z,32.14
2023-05-19T11:25:44.570Z,32.18
2023-05-19T11:28:14.767Z,32.14
2023-05-19T11:30:42.443Z,31.93
2023-05-19T11:33:09.835Z,31.69
2023-05-19T11:35:37.788Z,31.64
2023-05-19T11:38:05.767Z,31.42
2023-05-19T11:40:33.160Z,31.45
2023-05-19T11:43:02.150Z,31.39
2023-05-19T11:45:30.145Z,31.22
2023-05-19T11:48:02.557Z,31.10
2023-05-19T11:50:31.459Z,31.12
2023-05-19T11:52:59.826Z,31.17
2023-05-19T11:55:27.250Z,31.27
2023-05-19T11:58:05.865Z,31.53
2023-05-19T12:00:38.114Z,31.63
2023-05-19T12:03:05.839Z,31.64
2023-05-19T12:05:36.665Z,31.70
2023-05-19T12:08:06.593Z,31.70
2023-05-19T12:10:36.715Z,31.72
2023-05-19T12:13:03.901Z,31.73
2023-05-19T12:15:31.681Z,31.70
2023-05-19T12:17:59.636Z,31.63
2023-05-19T12:20:27.458Z,31.52
2023-05-19T12:22:57.772Z,31.42
2023-05-19T12:25:25.018Z,31.46
2023-05-19T12:27:56.897Z,31.27
2023-05-19T12:30:26.465Z,31.08
2023-05-19T12:32:54.131Z,30.79
2023-05-19T12:35:23.509Z,30.76
2023-05-19T12:37:50.900Z,30.49
2023-05-19T12:40:18.087Z,30.48
2023-05-19T12:42:45.556Z,30.14
2023-05-19T12:45:12.878Z,30.44
2023-05-19T12:47:40.074Z,30.53
2023-05-19T12:50:11.007Z,30.46
2023-05-19T12:52:47.835Z,30.34
2023-05-19T12:55:16.839Z,30.72
2023-05-19T12:57:44.603Z,30.74
2023-05-19T13:00:11.882Z,30.63
2023-05-19T13:02:55.002Z,30.65
2023-05-19T13:05:22.990Z,30.73
2023-05-19T13:08:09.104Z,30.64
2023-05-19T13:10:37.076Z,30.25
2023-05-19T13:13:04.309Z,30.22
2023-05-19T13:15:34.702Z,30.36
2023-05-19T13:18:02.153Z,30.41
2023-05-19T13:20:29.449Z,30.34
2023-05-19T13:22:57.267Z,30.25
2023-05-19T13:25:24.636Z,30.20
2023-05-19T13:27:52.039Z,29.99
2023-05-19T13:30:19.261Z,30.07
2023-05-19T13:32:46.856Z,30.05
2023-05-19T13:35:14.395Z,30.02
2023-05-19T13:37:42.009Z,30.01
2023-05-19T13:40:09.736Z,30.56
2023-05-19T13:42:36.907Z,30.77
2023-05-19T13:45:04.370Z,30.62
2023-05-19T13:47:31.673Z,30.75
2023-05-19T13:49:58.891Z,30.73
2023-05-19T13:52:27.505Z,30.76
2023-05-19T13:54:56.977Z,30.62
2023-05-19T13:57:24.294Z,30.59
2023-05-19T14:00:01.851Z,30.51
2023-05-19T14:02:39.695Z,30.34
2023-05-19T14:05:07.664Z,30.48
2023-05-19T14:07:35.487Z,30.51
2023-05-19T14:10:03.138Z,30.53
2023-05-19T14:12:43.150Z,30.57
2023-05-19T14:15:18.129Z,30.63
2023-05-19T14:17:45.350Z,30.74
2023-05-19T14:20:12.706Z,30.72
2023-05-19T14:22:39.919Z,30.52
2023-05-19T14:25:07.493Z,29.81
2023-05-19T14:27:34.749Z,29.69
2023-05-19T14:30:01.898Z,29.57
2023-05-19T14:32:30.430Z,29.50
2023-05-19T14:34:57.908Z,29.47
2023-05-19T14:37:29.035Z,29.41
2023-05-19T14:39:57.232Z,29.68
2023-05-19T14:42:24.545Z,29.77
2023-05-19T14:44:51.724Z,29.50
2023-05-19T14:47:18.940Z,29.52
2023-05-19T14:49:46.129Z,29.52
2023-05-19T14:52:13.381Z,29.50
2023-05-19T14:54:40.667Z,29.26
2023-05-19T14:57:08.394Z,29.34
2023-05-19T14:59:38.071Z,29.39
2023-05-19T15:02:05.693Z,29.37
2023-05-19T15:04:32.855Z,29.52
2023-05-19T15:07:09.666Z,29.61
2023-05-19T15:09:37.898Z,29.65
2023-05-19T15:12:05.214Z,29.69
2023-05-19T15:14:32.445Z,29.72
2023-05-19T15:16:59.625Z,29.59
2023-05-19T15:19:27.099Z,29.51
2023-05-19T15:21:54.517Z,29.55
2023-05-19T15:24:21.828Z,29.67
2023-05-19T15:26:48.925Z,29.56
2023-05-19T15:29:16.152Z,29.51
2023-05-19T15:31:43.678Z,29.61
2023-05-19T15:34:10.924Z,29.52
2023-05-19T15:36:38.107Z,29.61
2023-05-19T15:39:06.296Z,29.72
2023-05-19T15:41:33.395Z,29.53
2023-05-19T15:44:00.709Z,29.62
2023-05-19T15:46:28.415Z,29.56
2023-05-19T15:48:55.703Z,29.62
2023-05-19T15:51:22.818Z,29.64
2023-05-19T15:53:50.013Z,29.55
2023-05-19T15:56:17.247Z,29.61
2023-05-19T15:58:44.481Z,29.61
2023-05-19T16:01:11.988Z,29.62
2023-05-19T16:03:39.256Z,29.57
2023-05-19T16:06:06.634Z,29.47
2023-05-19T16:08:33.818Z,29.38
2023-05-19T16:11:01.321Z,29.24
2023-05-19T16:13:28.556Z,29.07
2023-05-19T16:15:56.311Z,29.01
2023-05-19T16:18:23.951Z,28.95
2023-05-19T16:20:51.483Z,28.93
2023-05-19T16:23:18.639Z,28.85
2023-05-19T16:25:45.907Z,28.78
2023-05-19T16:28:13.119Z,28.66
2023-05-19T16:30:40.622Z,28.62
2023-05-19T16:33:15.032Z,28.59
2023-05-19T16:35:42.798Z,28.52
2023-05-19T16:38:10.022Z,28.32
2023-05-19T16:40:37.364Z,28.25
2023-05-19T16:43:04.502Z,28.14
2023-05-19T16:45:31.775Z,28.10
2023-05-19T16:47:58.991Z,28.00
2023-05-19T16:50:26.329Z,27.95
2023-05-19T16:52:53.437Z,27.89
2023-05-19T16:55:20.802Z,27.79
2023-05-19T16:57:48.040Z,27.63
2023-05-19T17:00:15.761Z,27.52
2023-05-19T17:02:43.125Z,27.46
2023-05-19T17:05:10.724Z,27.39
2023-05-19T17:07:37.903Z,27.32
2023-05-19T17:10:05.398Z,27.24
2023-05-19T17:12:32.659Z,27.18
2023-05-19T17:14:59.812Z,27.15
2023-05-19T17:17:27.014Z,27.09
2023-05-19T17:19:54.610Z,26.91
2023-05-19T17:22:21.755Z,26.87
2023-05-19T17:24:48.875Z,26.78
2023-05-19T17:27:16.404Z,26.73
2023-05-19T17:29:43.605Z,26.69
2023-05-19T17:32:10.802Z,26.65
2023-05-19T17:34:39.386Z,26.63
2023-05-19T17:37:06.628Z,26.57
2023-05-19T17:39:34.172Z,26.51
2023-05-19T17:42:01.365Z,26.34
2023-05-19T17:44:28.579Z,26.27
2023-05-19T17:46:55.871Z,26.25
2023-05-19T17:49:24.634Z,26.22
2023-05-19T17:51:51.968Z,26.15
2023-05-19T17:54:19.387Z,26.10
2023-05-19T17:56:46.722Z,26.05
2023-05-19T17:59:13.989Z,25.96
2023-05-19T18:01:41.459Z,25.93
2023-05-19T18:04:09.170Z,25.90
2023-05-19T18:06:39.596Z,25.84
2023-05-19T18:09:09.196Z,25.71
2023-05-19T18:11:36.687Z,25.57
2023-05-19T18:14:03.899Z,25.50
2023-05-19T18:16:35.110Z,25.42
2023-05-19T18:19:03.459Z,25.32
2023-05-19T18:21:31.586Z,25.31
2023-05-19T18:24:00.758Z,25.25
2023-05-19T18:26:28.004Z,25.18
2023-05-19T18:28:54.970Z,25.14
2023-05-19T18:31:22.168Z,25.08
2023-05-19T18:33:49.290Z,25.00
2023-05-19T18:36:16.896Z,24.92
2023-05-19T18:38:44.000Z,24.85
2023-05-19T18:41:11.272Z,24.84
2023-05-19T18:43:39.314Z,24.80
2023-05-19T18:46:06.928Z,24.78
2023-05-19T18:48:34.116Z,24.76
2023-05-19T18:51:03.645Z,24.74
2023-05-19T18:53:34.868Z,24.69
2023-05-19T18:56:03.809Z,24.65
2023-05-19T18:58:31.004Z,24.64
2023-05-19T19:00:58.357Z,24.57
2023-05-19T19:03:25.799Z,24.53
2023-05-19T19:05:59.196Z,24.47
2023-05-19T19:08:26.400Z,24.40
2023-05-19T19:10:59.322Z,24.32
2023-05-19T19:13:26.912Z,24.30
2023-05-19T19:15:54.063Z,24.29
2023-05-19T19:18:21.222Z,24.29
2023-05-19T19:20:48.453Z,24.24
2023-05-19T19:23:15.665Z,24.19
2023-05-19T19:25:42.779Z,24.16
2023-05-19T19:28:10.692Z,24.13
2023-05-19T19:30:38.035Z,24.09
2023-05-19T19:33:06.654Z,24.02
2023-05-19T19:35:34.242Z,23.98
2023-05-19T19:38:01.527Z,23.92
2023-05-19T19:40:29.491Z,23.89
2023-05-19T19:42:56.797Z,23.86
2023-05-19T19:45:24.077Z,23.83
2023-05-19T19:47:51.996Z,23.81
2023-05-19T19:50:19.282Z,23.83
2023-05-19T19:52:46.466Z,23.80
2023-05-19T19:55:13.672Z,23.75
2023-05-19T19:57:40.952Z,23.70
2023-05-19T20:00:08.621Z,23.65
2023-05-19T20:02:40.946Z,23.58
2023-05-19T20:05:12.891Z,23.50
2023-05-19T20:07:40.141Z,23.52
2023-05-19T20:10:07.858Z,23.52
2023-05-19T20:12:34.996Z,23.47
2023-05-19T20:15:02.138Z,23.42
2023-05-19T20:17:29.323Z,23.38
2023-05-19T20:19:56.797Z,23.35
2023-05-19T20:22:23.941Z,23.31
2023-05-19T20:24:51.164Z,23.26
2023-05-19T20:27:18.471Z,23.22
2023-05-19T20:29:47.215Z,23.19
2023-05-19T20:32:14.361Z,23.16
2023-05-19T20:34:41.648Z,23.14
2023-05-19T20:37:08.792Z,23.09
2023-05-19T20:39:36.060Z,23.06
2023-05-19T20:42:03.290Z,23.03
2023-05-19T20:44:30.597Z,22.99
2023-05-19T20:46:58.075Z,22.94
2023-05-19T20:49:25.273Z,22.90
2023-05-19T20:51:52.617Z,22.89
2023-05-19T20:54:20.431Z,22.85
2023-05-19T20:56:47.667Z,22.82
2023-05-19T20:59:14.771Z,22.79
2023-05-19T21:01:42.091Z,22.74
2023-05-19T21:04:09.309Z,22.72
2023-05-19T21:06:36.558Z,22.69
2023-05-19T21:09:06.866Z,22.65
2023-05-19T21:11:34.344Z,22.61
2023-05-19T21:14:04.284Z,22.59
2023-05-19T21:16:32.207Z,22.53
2023-05-19T21:18:59.387Z,22.49
2023-05-19T21:21:26.386Z,22.42
2023-05-19T21:23:53.504Z,22.32
2023-05-19T21:26:21.839Z,22.24
2023-05-19T21:28:48.934Z,22.18
2023-05-19T21:31:16.056Z,22.12
2023-05-19T21:33:43.252Z,22.06
2023-05-19T21:36:10.414Z,22.02
2023-05-19T21:38:37.832Z,21.96
2023-05-19T21:41:04.848Z,21.92
2023-05-19T21:43:31.859Z,21.90
2023-05-19T21:45:58.800Z,21.86
2023-05-19T21:48:26.201Z,21.80
2023-05-19T21:50:54.576Z,21.79
2023-05-19T21:53:21.646Z,21.75
2023-05-19T21:55:48.669Z,21.74
2023-05-19T21:58:15.992Z,21.72
2023-05-19T22:00:43.643Z,21.69
2023-05-19T22:03:10.785Z,21.65
2023-05-19T22:05:38.461Z,21.62
2023-05-19T22:08:05.548Z,21.60
2023-05-19T22:10:32.774Z,21.57
2023-05-19T22:13:00.209Z,21.55
2023-05-19T22:15:27.474Z,21.52
2023-05-19T22:17:54.702Z,21.51
2023-05-19T22:20:21.889Z,21.49
2023-05-19T22:22:49.026Z,21.48
2023-05-19T22:25:16.723Z,21.45
2023-05-19T22:27:45.420Z,21.43
2023-05-19T22:30:12.593Z,21.44
2023-05-19T22:32:39.850Z,21.38
2023-05-19T22:35:08.517Z,21.32
2023-05-19T22:37:35.742Z,21.31
2023-05-19T22:40:02.923Z,21.29
2023-05-19T22:42:30.035Z,21.27
2023-05-19T22:44:57.136Z,21.21
2023-05-19T22:47:24.287Z,21.17
2023-05-19T22:49:51.601Z,21.14
2023-05-19T22:52:18.749Z,21.05
2023-05-19T22:54:45.933Z,21.04
2023-05-19T22:57:13.137Z,21.00
2023-05-19T22:59:41.285Z,20.96
2023-05-19T23:02:08.565Z,20.91
2023-05-19T23:04:35.881Z,20.89
2023-05-19T23:07:03.135Z,20.83
2023-05-19T23:09:30.771Z,20.77
2023-05-19T23:11:57.932Z,20.63
2023-05-19T23:14:26.176Z,20.57
2023-05-19T23:16:53.324Z,20.52
2023-05-19T23:19:23.636Z,20.46
2023-05-19T23:21:51.058Z,20.40
2023-05-19T23:24:18.125Z,20.36
2023-05-19T23:26:45.294Z,20.35
2023-05-19T23:29:13.278Z,20.30
2023-05-19T23:31:41.248Z,20.25
2023-05-19T23:34:08.428Z,20.20
2023-05-19T23:36:35.582Z,20.14
2023-05-19T23:39:02.902Z,20.11
2023-05-19T23:41:30.349Z,20.09
2023-05-19T23:43:57.443Z,20.05
2023-05-19T23:46:24.718Z,20.02
2023-05-19T23:48:51.900Z,19.99
2023-05-19T23:51:19.465Z,19.95
2023-05-19T23:53:47.126Z,19.90
2023-05-19T23:56:14.334Z,19.86
2023-05-19T23:58:41.537Z,19.83
